Cruz Bajada, Argentina
Current Conditions -  °F | °C
As of 9:00 AM on Thursday 30 Oct 2014 (Local Time) from SASJ Reporting Station
Overcast Overcast  
Wind Chill: 72°   Ceiling: 10000
Heat Index: 72°   Visibility: 6mi
Dew Point: 61°   Wind: 18mph
Humidity: 69%   Direction: 200°SSW
Pressure: 29.85"   Gusts: 30mph
Location:  25.44°S, 63.87°W
Report Text: SASJ 301200Z 20016G26KT 180V240 9999FEW030 OVC100 22/16 Q1011
Loading
Personal Weather Stations






























Interactive Weather Map
Tropical Storm Tracking
New forecast layout! Learn more

10-Day Weather Forecast

Advertisements
Track Severe Weather on mobile